メインページ
METAR-TAF:

METAR-TAF

空港 :

マリスカル・スクレ国際空港

キト, エクアドル

緯度: 0-06-48S, 経度: 78-21-31W, 海抜: 2400m

現時点の気象観測

当レポートは54分前の11:00(UTC)に作成
の風 4kt
気温 9°C
湿度 100%
気圧 1026 hPa
視程10km以上
高度2000ftの雲は散在している

METAR: SEQM 221100Z 09004KT 9999 SCT020 09/09 Q1026 NOSIG RMK A3030

時間: 06:54 (11:54 UTC)

予報

当レポートは2時間34分前の09:20(UTC)に作成
予報は22日の 12時(UTC)から 23日の 12時(UTC)まで有効
変向風 3kt
視程10km以上
高度3000ftの雲は散在している
高度10000ftの雲は散在している
22日の 1800時(UTC)から
北/北東の風 12kt
視程10km以上
高度3300ftの千切れ雲あり
高度10000ftの千切れ雲あり
23日の 0000時(UTC)から
北東の風 4kt
視程10km以上
高度1000ftの雲はほとんどない
高度2000ftの千切れ雲あり
23日の 0600時(UTC)から
変向風 3kt
視程10km以上
高度700ftの雲は散在している
高度1600ftの千切れ雲あり
高度10000ftの千切れ雲あり
散在霧

TAF: SEQM 220920Z 2212/2312 VRB03KT 9999 SCT030 SCT100 FM221800 02012KT 9999 BKN033 BKN100 FM230000 04004KT 9999 FEW010 BKN020 FM230600 VRB03KT 9999 BCFG SCT007 BKN016 BKN100 TX21/2219Z TN12/2311Z

4,000以上の空港の気象観測と天気予報(METAR報とTAF報)

利用可能な観測所は地図上に黄色い丸と赤い丸で示す。

丸の上にカーソルを重ねると観測所名を参照できる。

次にクリックすると気象観測と天気予報を参照できる。

マップの切り替え:黒色「×」印の緑ボタンをクリックして拡大、「-」印の緑ボタンをクリックして縮小、緑色の三角印をクリックして隣りの地図に切り替え


METAR-TAF: